Portada
METAR-TAF:

METAR-TAF

Aeroports :

Joinville, Santa Catarina, Brasil

latitud: 26-13-23S, longitud: 048-47-51W, altitud: 4 m

Observació

L'informe es va fer fa 1 hora i 14 minuts, a les 19:00 UTC
Vent 7 kt del Nord/Nord-Est
Temperatura 23°C
Humitat 83%
Pressió 1013 hPa
Visibilitat: 7000 m
Cel ennuvolat a una alçada de 800 ft
Cel cobert a una alçada de 3000 ft

METAR: SBJV 131900Z 03007KT 7000 BKN008 OVC030 23/20 Q1013

Hora: 18:14 (20:14 UTC)

Pronòstic

L'informe es va fer fa 4 hores i 44 minuts, a les 15:30 UTC
Pronòstic vàlid del 13 a les 18 UTC al 14 a les 06 UTC
Vent 7 kt del Nord/Nord-Est
Visibilitat: 9000 m
Cel ennuvolat a una alçada de 1500 ft
Cel ennuvolat a una alçada de 4000 ft

TAF: SBJV 131530Z 1318/1406 02007KT 9000 BKN015 BKN040 TX24/1318Z TN21/1405Z RMK PCX

Observacions i pronòstics meteorològics de més de 4000 aeroports (METAR i TAF).

Les estacions disponibles són els punts grocs i vermells al mapa.

Posi el ratolí al punt desitjat per veure el nom de l'estació.

Feu clic per veure les observacions i els pronòstics meteorològics.

Per canviar el mapa: feu clic els botons verds amb una creu de color negre per apropar; al botó verd amb un guió per allunyar la imatge; o en les fletxes verdes per a mapes adjacents.


METAR-TAF: